createdAt,value
2022-08-26T00:00:04.531Z,17.33
2022-08-26T00:02:34.325Z,18.88
2022-08-26T00:05:04.088Z,22.10
2022-08-26T00:07:34.177Z,15.45
2022-08-26T00:10:03.998Z,17.30
2022-08-26T00:12:37.485Z,19.10
2022-08-26T00:15:13.557Z,22.85
2022-08-26T00:17:44.017Z,18.38
2022-08-26T00:20:16.934Z,17.27
2022-08-26T00:22:46.732Z,24.58
2022-08-26T00:25:16.824Z,23.52
2022-08-26T00:27:47.932Z,19.02
2022-08-26T00:30:24.091Z,22.90
2022-08-26T00:32:54.420Z,24.42
2022-08-26T00:35:24.688Z,28.02
2022-08-26T00:37:58.064Z,19.33
2022-08-26T00:40:32.983Z,22.23
2022-08-26T00:43:03.869Z,21.10
2022-08-26T00:45:48.443Z,27.48
2022-08-26T00:48:20.842Z,26.48
2022-08-26T00:50:55.918Z,23.98
2022-08-26T00:53:28.696Z,23.17
2022-08-26T00:56:02.808Z,28.50
2022-08-26T00:58:35.195Z,27.58
2022-08-26T01:01:08.418Z,30.17
2022-08-26T01:03:40.371Z,23.58
2022-08-26T01:06:13.040Z,27.73
2022-08-26T01:08:43.348Z,20.98
2022-08-26T01:11:14.088Z,27.02
2022-08-26T01:13:44.305Z,24.35
2022-08-26T01:16:19.022Z,24.15
2022-08-26T01:18:50.723Z,25.08
2022-08-26T01:21:29.448Z,21.65
2022-08-26T01:24:02.933Z,22.52
2022-08-26T01:26:36.019Z,20.15
2022-08-26T01:29:10.473Z,23.00
2022-08-26T01:31:45.279Z,20.48
2022-08-26T01:34:22.814Z,25.02
2022-08-26T01:36:54.420Z,22.48
2022-08-26T01:39:27.882Z,27.80
2022-08-26T01:42:02.913Z,23.10
2022-08-26T01:44:37.016Z,18.13
2022-08-26T01:47:07.912Z,29.80
2022-08-26T01:49:39.951Z,29.80
2022-08-26T01:52:11.481Z,26.25
2022-08-26T01:54:46.334Z,25.42
2022-08-26T01:57:21.635Z,30.17
2022-08-26T01:59:55.793Z,26.20
2022-08-26T02:02:26.954Z,23.88
2022-08-26T02:05:00.211Z,27.52
2022-08-26T02:07:30.853Z,24.70
2022-08-26T02:10:07.112Z,20.42
2022-08-26T02:12:37.244Z,26.00
2022-08-26T02:15:11.150Z,29.55
2022-08-26T02:17:43.748Z,22.25
2022-08-26T02:20:15.297Z,22.67
2022-08-26T02:22:45.389Z,26.88
2022-08-26T02:25:25.639Z,32.45
2022-08-26T02:27:56.880Z,27.98
2022-08-26T02:30:29.513Z,27.70
2022-08-26T02:33:04.035Z,24.77
2022-08-26T02:35:36.427Z,24.17
2022-08-26T02:38:09.836Z,23.13
2022-08-26T02:40:44.783Z,20.23
2022-08-26T02:43:15.196Z,21.27
2022-08-26T02:45:46.073Z,21.95
2022-08-26T02:48:19.615Z,22.50
2022-08-26T02:50:49.899Z,25.92
2022-08-26T02:53:25.058Z,23.17
2022-08-26T02:55:58.378Z,24.13
2022-08-26T02:58:29.577Z,23.45
2022-08-26T03:00:59.662Z,23.65
2022-08-26T03:03:32.082Z,23.35
2022-08-26T03:06:02.373Z,23.90
2022-08-26T03:08:32.144Z,18.83
2022-08-26T03:11:04.468Z,20.30
2022-08-26T03:13:35.882Z,18.67
2022-08-26T03:16:06.465Z,23.02
2022-08-26T03:18:36.612Z,18.63
2022-08-26T03:21:09.035Z,18.35
2022-08-26T03:23:38.727Z,18.33
2022-08-26T03:26:14.675Z,15.98
2022-08-26T03:29:04.879Z,20.58
2022-08-26T03:31:32.093Z,21.13
2022-08-26T03:34:02.778Z,15.27
2022-08-26T03:36:32.988Z,17.77
2022-08-26T03:39:04.860Z,19.55
2022-08-26T03:41:37.813Z,17.38
2022-08-26T03:44:08.936Z,21.05
2022-08-26T03:46:39.652Z,19.95
2022-08-26T03:49:10.443Z,19.98
2022-08-26T03:51:40.631Z,19.13
2022-08-26T03:54:12.503Z,16.10
2022-08-26T03:56:46.621Z,18.30
2022-08-26T03:59:16.634Z,13.90
2022-08-26T04:01:46.476Z,18.73
2022-08-26T04:04:18.317Z,17.45
2022-08-26T04:06:53.234Z,19.50
2022-08-26T04:09:23.858Z,17.42
2022-08-26T04:11:58.732Z,18.52
2022-08-26T04:14:31.337Z,20.42
2022-08-26T04:17:04.990Z,20.00
2022-08-26T04:19:35.949Z,21.98
2022-08-26T04:22:05.752Z,19.33
2022-08-26T04:24:36.381Z,20.20
2022-08-26T04:27:08.990Z,18.35
2022-08-26T04:29:39.195Z,16.00
2022-08-26T04:32:09.392Z,18.17
2022-08-26T04:34:40.623Z,16.95
2022-08-26T04:37:11.126Z,23.75
2022-08-26T04:39:41.197Z,18.90
2022-08-26T04:42:14.018Z,20.58
2022-08-26T04:44:43.702Z,17.27
2022-08-26T04:47:13.428Z,18.15
2022-08-26T04:49:43.825Z,15.18
2022-08-26T04:52:13.541Z,13.20
2022-08-26T04:54:43.249Z,17.20
2022-08-26T04:57:16.272Z,16.23
2022-08-26T04:59:46.011Z,18.55
2022-08-26T05:02:15.846Z,16.77
2022-08-26T05:04:45.655Z,16.85
2022-08-26T05:07:15.375Z,17.33
2022-08-26T05:09:47.663Z,14.93
2022-08-26T05:12:20.004Z,18.52
2022-08-26T05:14:49.974Z,14.45
2022-08-26T05:17:19.683Z,20.15
2022-08-26T05:19:50.746Z,16.35
2022-08-26T05:22:20.483Z,14.77
2022-08-26T05:24:50.227Z,18.08
2022-08-26T05:27:22.555Z,15.02
2022-08-26T05:29:54.654Z,15.45
2022-08-26T05:32:24.493Z,13.85
2022-08-26T05:34:57.221Z,16.92
2022-08-26T05:37:28.359Z,18.30
2022-08-26T05:39:58.231Z,14.98
2022-08-26T05:42:31.136Z,14.25
2022-08-26T05:45:00.866Z,17.58
2022-08-26T05:47:30.626Z,17.33
2022-08-26T05:50:00.744Z,14.23
2022-08-26T05:52:30.455Z,15.27
2022-08-26T05:55:00.492Z,15.15
2022-08-26T05:57:37.462Z,14.85
2022-08-26T06:00:11.500Z,10.82
2022-08-26T06:02:41.552Z,13.15
2022-08-26T06:05:12.002Z,11.85
2022-08-26T06:07:54.136Z,8.57
2022-08-26T06:10:32.839Z,10.70
2022-08-26T06:13:11.502Z,10.35
2022-08-26T06:15:46.533Z,9.95
2022-08-26T06:18:18.179Z,9.98
2022-08-26T06:20:56.982Z,7.65
2022-08-26T06:23:41.166Z,11.68
2022-08-26T06:26:11.169Z,9.10
2022-08-26T06:28:45.370Z,8.80
2022-08-26T06:31:15.999Z,8.32
2022-08-26T06:33:46.287Z,8.40
2022-08-26T06:36:20.776Z,10.48
2022-08-26T06:38:51.906Z,6.55
2022-08-26T06:41:23.853Z,13.90
2022-08-26T06:43:57.530Z,9.38
2022-08-26T06:46:27.381Z,11.43
2022-08-26T06:48:58.351Z,11.95
2022-08-26T06:51:30.251Z,11.35
2022-08-26T06:54:02.328Z,12.10
2022-08-26T06:56:38.159Z,8.93
2022-08-26T06:59:11.616Z,7.95
2022-08-26T07:01:45.662Z,5.57
2022-08-26T07:04:22.019Z,7.50
2022-08-26T07:06:53.680Z,8.40
2022-08-26T07:09:25.503Z,7.78
2022-08-26T07:11:56.667Z,9.38
2022-08-26T07:14:29.408Z,13.95
2022-08-26T07:17:02.735Z,9.15
2022-08-26T07:19:32.492Z,8.00
2022-08-26T07:22:04.228Z,15.20
2022-08-26T07:24:35.059Z,11.88
2022-08-26T07:27:07.352Z,11.13
2022-08-26T07:29:42.580Z,12.00
2022-08-26T07:32:13.552Z,13.68
2022-08-26T07:34:44.779Z,13.68
2022-08-26T07:37:14.797Z,9.68
2022-08-26T07:39:45.319Z,10.55
2022-08-26T07:42:17.014Z,8.85
2022-08-26T07:44:51.509Z,7.57
2022-08-26T07:47:25.640Z,10.68
2022-08-26T07:49:57.986Z,7.28
2022-08-26T07:52:29.523Z,11.27
2022-08-26T07:55:00.986Z,8.93
2022-08-26T07:57:31.640Z,6.93
2022-08-26T08:00:04.220Z,7.45
2022-08-26T08:02:34.071Z,7.00
2022-08-26T08:05:04.516Z,6.55
2022-08-26T08:07:44.501Z,9.70
2022-08-26T08:10:17.065Z,8.10
2022-08-26T08:12:47.573Z,6.38
2022-08-26T08:15:21.267Z,8.45
2022-08-26T08:17:51.583Z,6.75
2022-08-26T08:20:22.325Z,7.70
2022-08-26T08:22:53.914Z,6.03
2022-08-26T08:25:24.099Z,7.18
2022-08-26T08:27:54.172Z,6.93
2022-08-26T08:30:27.688Z,6.65
2022-08-26T08:32:57.981Z,8.27
2022-08-26T08:35:27.864Z,9.05
2022-08-26T08:37:59.773Z,4.97
2022-08-26T08:40:31.428Z,8.18
2022-08-26T08:43:05.343Z,7.22
2022-08-26T08:45:42.044Z,8.50
2022-08-26T08:48:18.917Z,4.85
2022-08-26T08:50:51.976Z,9.30
2022-08-26T08:53:25.237Z,7.50
2022-08-26T08:56:03.969Z,6.63
2022-08-26T08:58:48.700Z,8.57
2022-08-26T09:01:31.020Z,11.95
2022-08-26T09:04:20.505Z,10.07
2022-08-26T09:06:53.065Z,7.45
2022-08-26T09:09:31.171Z,9.35
2022-08-26T09:12:01.624Z,9.63
2022-08-26T09:14:31.474Z,9.27
2022-08-26T09:17:12.241Z,9.90
2022-08-26T09:19:45.929Z,7.07
2022-08-26T09:22:32.334Z,7.97
2022-08-26T09:25:02.576Z,5.78
2022-08-26T09:27:44.952Z,9.75
2022-08-26T09:30:18.197Z,8.15
2022-08-26T09:33:01.216Z,6.05
2022-08-26T09:35:34.017Z,9.13
2022-08-26T09:38:06.155Z,9.23
2022-08-26T09:40:40.206Z,6.22
2022-08-26T09:43:22.015Z,5.05
2022-08-26T09:45:59.284Z,8.10
2022-08-26T09:48:36.602Z,9.60
2022-08-26T09:51:08.948Z,8.73
2022-08-26T09:53:53.038Z,10.02
2022-08-26T09:56:30.088Z,5.70
2022-08-26T09:59:01.154Z,6.00
2022-08-26T10:01:38.338Z,5.80
2022-08-26T10:04:14.989Z,4.35
2022-08-26T10:06:57.034Z,7.63
2022-08-26T10:09:28.761Z,5.63
2022-08-26T10:12:03.507Z,5.38
2022-08-26T10:14:40.045Z,6.03
2022-08-26T10:17:14.248Z,8.70
2022-08-26T10:19:56.924Z,8.77
2022-08-26T10:22:34.404Z,13.25
2022-08-26T10:25:09.600Z,7.45
2022-08-26T10:27:52.750Z,8.43
2022-08-26T10:30:25.515Z,7.28
2022-08-26T10:32:58.519Z,6.47
2022-08-26T10:35:33.662Z,5.82
2022-08-26T10:38:06.442Z,5.68
2022-08-26T10:40:49.143Z,6.45
2022-08-26T10:43:25.693Z,6.35
2022-08-26T10:46:00.737Z,7.32
2022-08-26T10:48:38.501Z,8.18
2022-08-26T10:51:13.159Z,7.43
2022-08-26T10:53:51.891Z,8.93
2022-08-26T10:56:39.880Z,9.95
2022-08-26T10:59:16.417Z,8.65
2022-08-26T11:01:52.719Z,10.65
2022-08-26T11:04:48.114Z,9.15
2022-08-26T11:07:42.283Z,9.10
2022-08-26T11:10:28.273Z,5.70
2022-08-26T11:13:00.870Z,7.97
2022-08-26T11:16:10.317Z,8.20
2022-08-26T11:18:51.329Z,9.32
2022-08-26T11:21:52.162Z,6.97
2022-08-26T11:24:49.604Z,7.78
2022-08-26T11:28:03.989Z,5.90
2022-08-26T11:30:57.017Z,9.35
2022-08-26T11:33:50.850Z,6.35
2022-08-26T11:36:39.960Z,8.60
2022-08-26T11:39:20.508Z,9.88
2022-08-26T11:42:00.209Z,8.55
2022-08-26T11:44:38.976Z,6.25
2022-08-26T11:47:11.788Z,9.43
2022-08-26T11:49:42.073Z,9.48
2022-08-26T11:52:23.303Z,9.48
2022-08-26T11:55:09.704Z,8.32
2022-08-26T11:57:47.564Z,7.13
2022-08-26T12:00:22.908Z,6.82
2022-08-26T12:02:55.745Z,11.38
2022-08-26T12:05:31.366Z,8.00
2022-08-26T12:08:08.733Z,9.07
2022-08-26T12:10:40.285Z,9.75
2022-08-26T12:13:23.682Z,9.23
2022-08-26T12:15:58.111Z,5.57
2022-08-26T12:18:36.490Z,7.63
2022-08-26T12:21:16.236Z,8.43
2022-08-26T12:23:50.090Z,5.78
2022-08-26T12:26:26.324Z,9.77
2022-08-26T12:29:02.833Z,6.70
2022-08-26T12:31:48.043Z,7.40
2022-08-26T12:34:19.811Z,9.38
2022-08-26T12:36:53.130Z,7.40
2022-08-26T12:39:29.460Z,8.45
2022-08-26T12:42:00.743Z,6.70
2022-08-26T12:44:53.166Z,5.80
2022-08-26T12:47:41.897Z,7.32
2022-08-26T12:50:20.809Z,5.78
2022-08-26T12:53:01.163Z,6.90
2022-08-26T12:55:40.927Z,6.25
2022-08-26T12:58:30.337Z,6.50
2022-08-26T13:01:23.723Z,8.70
2022-08-26T13:03:53.737Z,6.65
2022-08-26T13:06:32.893Z,8.05
2022-08-26T13:09:06.025Z,7.20
2022-08-26T13:11:38.297Z,6.53
2022-08-26T13:14:10.417Z,6.10
2022-08-26T13:16:43.972Z,6.68
2022-08-26T13:19:17.300Z,6.00
2022-08-26T13:21:50.622Z,6.15
2022-08-26T13:24:24.502Z,5.75
2022-08-26T13:26:54.392Z,7.95
2022-08-26T13:29:24.152Z,9.43
2022-08-26T13:31:58.641Z,6.55
2022-08-26T13:34:28.672Z,4.82
2022-08-26T13:36:59.512Z,5.95
2022-08-26T13:39:29.803Z,9.10
2022-08-26T13:42:00.388Z,5.70
2022-08-26T13:44:30.426Z,3.92
2022-08-26T13:47:02.795Z,6.97
2022-08-26T13:49:32.597Z,7.40
2022-08-26T13:52:03.806Z,5.68
2022-08-26T13:54:33.588Z,8.55
2022-08-26T13:57:03.407Z,3.92
2022-08-26T13:59:33.200Z,6.93
2022-08-26T14:02:05.722Z,9.73
2022-08-26T14:04:35.754Z,8.20
2022-08-26T14:07:05.546Z,3.88
2022-08-26T14:09:38.292Z,6.38
2022-08-26T14:12:08.777Z,5.75
2022-08-26T14:14:38.548Z,3.65
2022-08-26T14:17:11.028Z,5.47
2022-08-26T14:19:41.364Z,4.47
2022-08-26T14:22:11.157Z,4.63
2022-08-26T14:24:40.954Z,4.35
2022-08-26T14:27:10.739Z,4.85
2022-08-26T14:29:40.583Z,4.40
2022-08-26T14:32:17.011Z,5.80
2022-08-26T14:34:50.815Z,5.95
2022-08-26T14:37:20.992Z,4.65
2022-08-26T14:39:51.299Z,3.95
2022-08-26T14:42:24.727Z,5.18
2022-08-26T14:44:58.039Z,4.18
2022-08-26T14:47:30.855Z,3.78
2022-08-26T14:50:00.672Z,3.40
2022-08-26T14:52:50.467Z,3.80
2022-08-26T14:55:17.785Z,6.65
2022-08-26T14:57:47.595Z,2.83
2022-08-26T15:00:18.842Z,4.03
2022-08-26T15:02:51.839Z,9.52
2022-08-26T15:05:22.043Z,3.67
2022-08-26T15:07:51.892Z,6.47
2022-08-26T15:10:21.991Z,9.30
2022-08-26T15:12:51.806Z,5.65
2022-08-26T15:15:21.991Z,5.13
2022-08-26T15:17:54.410Z,6.40
2022-08-26T15:20:24.309Z,5.40
2022-08-26T15:22:54.097Z,5.28
2022-08-26T15:25:24.583Z,3.38
2022-08-26T15:27:54.374Z,4.75
2022-08-26T15:30:24.190Z,4.30
2022-08-26T15:32:56.644Z,4.70
2022-08-26T15:35:26.383Z,5.68
2022-08-26T15:37:56.386Z,6.70
2022-08-26T15:40:28.194Z,4.22
2022-08-26T15:43:17.790Z,4.25
2022-08-26T15:45:47.892Z,6.40
2022-08-26T15:48:20.606Z,4.43
2022-08-26T15:50:54.239Z,3.78
2022-08-26T15:53:24.344Z,8.25
2022-08-26T15:55:56.747Z,4.80
2022-08-26T15:58:28.816Z,5.25
2022-08-26T16:01:00.108Z,3.03
2022-08-26T16:03:32.610Z,4.47
2022-08-26T16:06:02.890Z,4.13
2022-08-26T16:08:36.450Z,5.03
2022-08-26T16:11:07.370Z,5.32
2022-08-26T16:13:39.756Z,4.50
2022-08-26T16:16:10.798Z,3.55
2022-08-26T16:18:43.337Z,3.92
2022-08-26T16:21:18.191Z,3.67
2022-08-26T16:23:48.450Z,3.63
2022-08-26T16:26:21.663Z,4.28
2022-08-26T16:28:51.794Z,4.38
2022-08-26T16:31:22.393Z,3.33
2022-08-26T16:33:54.838Z,3.35
2022-08-26T16:36:24.605Z,3.25
2022-08-26T16:38:56.631Z,4.90
2022-08-26T16:41:27.934Z,5.38
2022-08-26T16:43:58.501Z,5.47
2022-08-26T16:46:28.739Z,6.88
2022-08-26T16:49:04.117Z,3.55
2022-08-26T16:51:38.033Z,4.13
2022-08-26T16:54:10.254Z,3.38
2022-08-26T16:56:40.677Z,3.40
2022-08-26T16:59:13.664Z,3.30
2022-08-26T17:01:43.465Z,4.07
2022-08-26T17:04:15.862Z,3.65
2022-08-26T17:06:45.644Z,4.05
2022-08-26T17:09:15.472Z,4.53
2022-08-26T17:11:45.936Z,5.80
2022-08-26T17:14:16.115Z,6.55
2022-08-26T17:16:51.274Z,5.13
2022-08-26T17:19:24.392Z,7.32
2022-08-26T17:21:54.204Z,5.10
2022-08-26T17:24:23.939Z,4.10
2022-08-26T17:26:55.723Z,3.38
2022-08-26T17:29:25.680Z,2.63
2022-08-26T17:31:55.475Z,4.28
2022-08-26T17:34:28.425Z,2.78
2022-08-26T17:36:58.255Z,4.03
2022-08-26T17:39:28.156Z,2.65
2022-08-26T17:41:57.892Z,2.88
2022-08-26T17:44:27.718Z,5.53
2022-08-26T17:46:57.555Z,3.92
2022-08-26T17:49:30.234Z,3.95
2022-08-26T17:52:01.472Z,3.10
2022-08-26T17:54:31.364Z,4.50
2022-08-26T17:57:01.668Z,4.68
2022-08-26T17:59:31.435Z,2.72
2022-08-26T18:02:01.787Z,4.20
2022-08-26T18:04:34.419Z,3.50
2022-08-26T18:07:04.133Z,4.28
2022-08-26T18:09:34.484Z,2.95
2022-08-26T18:12:04.224Z,2.83
2022-08-26T18:14:35.436Z,3.78
2022-08-26T18:17:05.659Z,2.72
2022-08-26T18:19:37.995Z,3.42
2022-08-26T18:22:08.053Z,2.97
2022-08-26T18:24:37.771Z,2.90
2022-08-26T18:27:08.197Z,4.25
2022-08-26T18:29:37.946Z,3.80
2022-08-26T18:32:15.307Z,4.28
2022-08-26T18:34:47.642Z,3.67
2022-08-26T18:37:17.548Z,3.08
2022-08-26T18:39:47.344Z,1.80
2022-08-26T18:42:17.354Z,2.83
2022-08-26T18:44:48.593Z,3.38
2022-08-26T18:47:18.317Z,6.07
2022-08-26T18:49:51.352Z,2.67
2022-08-26T18:52:21.173Z,4.10
2022-08-26T18:54:53.479Z,3.90
2022-08-26T18:57:23.230Z,6.68
2022-08-26T18:59:52.944Z,4.75
2022-08-26T19:02:22.756Z,5.82
2022-08-26T19:04:55.206Z,4.50
2022-08-26T19:07:24.905Z,2.67
2022-08-26T19:09:54.623Z,2.30
2022-08-26T19:12:26.966Z,4.85
2022-08-26T19:14:56.819Z,3.58
2022-08-26T19:17:27.005Z,2.92
2022-08-26T19:19:59.416Z,4.60
2022-08-26T19:22:29.181Z,4.70
2022-08-26T19:24:58.932Z,4.68
2022-08-26T19:27:28.657Z,6.68
2022-08-26T19:29:59.142Z,6.45
2022-08-26T19:32:28.923Z,2.97
2022-08-26T19:35:01.291Z,2.70
2022-08-26T19:37:31.114Z,2.97
2022-08-26T19:40:00.938Z,2.97
2022-08-26T19:42:30.777Z,4.53
2022-08-26T19:45:24.711Z,4.78
2022-08-26T19:47:55.817Z,5.20
2022-08-26T19:50:29.617Z,4.97
2022-08-26T19:53:00.029Z,3.33
2022-08-26T19:55:30.473Z,4.72
2022-08-26T19:58:00.517Z,4.18
2022-08-26T20:00:32.122Z,3.40
2022-08-26T20:03:03.040Z,3.20
2022-08-26T20:05:35.526Z,4.38
2022-08-26T20:08:05.814Z,5.28
2022-08-26T20:10:35.980Z,3.40
2022-08-26T20:13:05.709Z,4.43
2022-08-26T20:15:38.467Z,3.10
2022-08-26T20:18:29.019Z,4.22
2022-08-26T20:21:13.915Z,2.65
2022-08-26T20:23:43.849Z,3.58
2022-08-26T20:26:13.649Z,3.45
2022-08-26T20:28:43.411Z,1.90
2022-08-26T20:31:13.422Z,7.00
2022-08-26T20:33:46.601Z,4.25
2022-08-26T20:36:20.421Z,3.47
2022-08-26T20:38:50.497Z,5.63
2022-08-26T20:41:21.078Z,4.15
2022-08-26T20:43:50.896Z,5.80
2022-08-26T20:46:24.532Z,3.22
2022-08-26T20:48:55.422Z,3.05
2022-08-26T20:51:31.300Z,2.55
2022-08-26T20:54:01.595Z,3.50
2022-08-26T20:56:31.363Z,2.00
2022-08-26T20:59:03.594Z,3.28
2022-08-26T21:01:37.031Z,5.57
2022-08-26T21:04:14.647Z,2.25
2022-08-26T21:06:52.362Z,4.65
2022-08-26T21:09:24.103Z,4.13
2022-08-26T21:11:54.831Z,3.95
2022-08-26T21:14:26.008Z,3.95
2022-08-26T21:16:56.267Z,2.17
2022-08-26T21:19:26.095Z,5.13
2022-08-26T21:21:59.087Z,3.30
2022-08-26T21:24:28.894Z,1.80
2022-08-26T21:26:58.677Z,2.47
2022-08-26T21:29:28.486Z,4.82
2022-08-26T21:31:58.334Z,3.45
2022-08-26T21:34:28.214Z,3.58
2022-08-26T21:37:00.741Z,3.70
2022-08-26T21:39:30.745Z,3.53
2022-08-26T21:42:09.631Z,4.80
2022-08-26T21:44:39.445Z,2.65
2022-08-26T21:47:09.616Z,2.72
2022-08-26T21:49:40.605Z,3.30
2022-08-26T21:52:13.547Z,4.30
2022-08-26T21:54:49.251Z,2.92
2022-08-26T21:57:19.518Z,3.20
2022-08-26T21:59:49.324Z,3.60
2022-08-26T22:02:19.122Z,2.42
2022-08-26T22:04:49.804Z,2.15
2022-08-26T22:07:22.268Z,1.88
2022-08-26T22:09:52.015Z,2.80
2022-08-26T22:12:21.784Z,2.30
2022-08-26T22:14:51.519Z,4.00
2022-08-26T22:17:22.622Z,2.67
2022-08-26T22:19:52.347Z,2.50
2022-08-26T22:22:24.827Z,3.17
2022-08-26T22:24:54.733Z,2.03
2022-08-26T22:27:24.506Z,2.15
2022-08-26T22:29:54.272Z,4.05
2022-08-26T22:32:24.012Z,3.95
2022-08-26T22:34:53.772Z,2.40
2022-08-26T22:37:26.178Z,4.95
2022-08-26T22:39:56.097Z,2.55
2022-08-26T22:42:25.865Z,2.63
2022-08-26T22:44:55.668Z,3.03
2022-08-26T22:47:25.511Z,3.28
2022-08-26T22:49:55.313Z,2.97
2022-08-26T22:52:27.798Z,3.95
2022-08-26T22:54:57.657Z,4.60
2022-08-26T22:57:27.942Z,4.72
2022-08-26T22:59:57.716Z,3.65
2022-08-26T23:02:27.487Z,2.53
2022-08-26T23:04:57.291Z,4.15
2022-08-26T23:07:29.654Z,2.95
2022-08-26T23:09:59.391Z,3.53
2022-08-26T23:12:29.321Z,3.08
2022-08-26T23:14:59.079Z,3.22
2022-08-26T23:17:28.831Z,2.75
2022-08-26T23:19:58.596Z,4.05
2022-08-26T23:22:31.529Z,4.03
2022-08-26T23:25:06.800Z,2.60
2022-08-26T23:27:38.262Z,4.05
2022-08-26T23:30:10.337Z,1.42
2022-08-26T23:32:40.121Z,1.77
2022-08-26T23:35:09.608Z,2.17
2022-08-26T23:37:48.486Z,4.15
2022-08-26T23:40:23.285Z,3.30
2022-08-26T23:42:53.247Z,2.55
2022-08-26T23:45:24.512Z,1.98
2022-08-26T23:47:54.797Z,2.15
2022-08-26T23:50:48.805Z,3.28
2022-08-26T23:53:20.603Z,2.63
2022-08-26T23:55:51.542Z,2.17
2022-08-26T23:58:23.275Z,3.58
